<?xml version="1.0" encoding="UTF-8" standalone="no" ?>
<gpx xmlns="http://www.topografix.com/GPX/1/1" xmlns:xsi="http://www.w3.org/2001/XMLSchema-instance" xsi:schemaLocation="http://www.topografix.com/GPX/1/1 http://www.topografix.com/GPX/1/1/gpx.xsd" version="1.1" creator="VisuGPX - https://www.visugpx.com">
  <metadata>
    <name>Le Fayet - les Contamines</name>
  </metadata>
  <trk>
    <name><![CDATA[Le Fayet - les Contamines]]></name>
    <extensions>
      <line xmlns="http://www.topografix.com/GPX/gpx_style/0/2">
        <color>0000FF</color>
        <width>4</width>
      </line>
    </extensions>
    <trkseg>
      <trkpt lat="45.90434" lon="6.70348">
        <ele>590.13041617618</ele>
        <time>2019-05-23T15:45:09.000Z</time>
      </trkpt>
      <trkpt lat="45.90434" lon="6.70348">
        <ele>590.13041617618</ele>
        <time>2019-05-23T15:45:09.000Z</time>
      </trkpt>
      <trkpt lat="45.90431" lon="6.70348">
        <ele>590.75342527075</ele>
        <time>2019-05-23T15:45:09.001Z</time>
      </trkpt>
      <trkpt lat="45.90422" lon="6.70357">
        <ele>591.61059499661</ele>
        <time>2019-05-23T15:45:09.006Z</time>
      </trkpt>
      <trkpt lat="45.90387" lon="6.70384">
        <ele>593.23578583441</ele>
        <time>2019-05-23T15:45:09.024Z</time>
      </trkpt>
      <trkpt lat="45.90354" lon="6.704">
        <ele>594.96468052882</ele>
        <time>2019-05-23T15:45:09.054Z</time>
      </trkpt>
      <trkpt lat="45.90312" lon="6.70405">
        <ele>596.82920429606</ele>
        <time>2019-05-23T15:45:09.098Z</time>
      </trkpt>
      <trkpt lat="45.90246" lon="6.70477">
        <ele>598.61066216665</ele>
        <time>2019-05-23T15:45:09.169Z</time>
      </trkpt>
      <trkpt lat="45.90228" lon="6.70486">
        <ele>600.51428403071</ele>
        <time>2019-05-23T15:45:09.247Z</time>
      </trkpt>
      <trkpt lat="45.9016" lon="6.70578">
        <ele>602.88409379277</ele>
        <time>2019-05-23T15:45:09.356Z</time>
      </trkpt>
      <trkpt lat="45.90131" lon="6.70624">
        <ele>604.9605879678</ele>
        <time>2019-05-23T15:45:09.479Z</time>
      </trkpt>
      <trkpt lat="45.90131" lon="6.70624">
        <ele>607.01116958108</ele>
        <time>2019-05-23T15:45:09.602Z</time>
      </trkpt>
      <trkpt lat="45.90125" lon="6.70634">
        <ele>609.02998850986</ele>
        <time>2019-05-23T15:45:09.728Z</time>
      </trkpt>
      <trkpt lat="45.90114" lon="6.70654">
        <ele>611.13797352496</ele>
        <time>2019-05-23T15:45:09.860Z</time>
      </trkpt>
      <trkpt lat="45.90102" lon="6.70671">
        <ele>613.24046797027</ele>
        <time>2019-05-23T15:45:09.998Z</time>
      </trkpt>
      <trkpt lat="45.90072" lon="6.70691">
        <ele>615.92025024685</ele>
        <time>2019-05-23T15:45:10.147Z</time>
      </trkpt>
      <trkpt lat="45.90101" lon="6.707">
        <ele>618.65609703107</ele>
        <time>2019-05-23T15:45:10.306Z</time>
      </trkpt>
      <trkpt lat="45.90103" lon="6.70706">
        <ele>621.64273853705</ele>
        <time>2019-05-23T15:45:10.466Z</time>
      </trkpt>
      <trkpt lat="45.90095" lon="6.70721">
        <ele>625.21404412455</ele>
        <time>2019-05-23T15:45:10.630Z</time>
      </trkpt>
      <trkpt lat="45.90098" lon="6.70728">
        <ele>628.85819700031</ele>
        <time>2019-05-23T15:45:10.797Z</time>
      </trkpt>
      <trkpt lat="45.90088" lon="6.70731">
        <ele>632.59447226311</ele>
        <time>2019-05-23T15:45:10.967Z</time>
      </trkpt>
      <trkpt lat="45.90084" lon="6.70735">
        <ele>636.49797345124</ele>
        <time>2019-05-23T15:45:11.139Z</time>
      </trkpt>
      <trkpt lat="45.90084" lon="6.70735">
        <ele>640.3246343486</ele>
        <time>2019-05-23T15:45:11.311Z</time>
      </trkpt>
      <trkpt lat="45.9006" lon="6.70749">
        <ele>645.0071228339</ele>
        <time>2019-05-23T15:45:11.491Z</time>
      </trkpt>
      <trkpt lat="45.89957" lon="6.70747">
        <ele>649.590948262</ele>
        <time>2019-05-23T15:45:11.706Z</time>
      </trkpt>
      <trkpt lat="45.89895" lon="6.70766">
        <ele>655.37218934246</ele>
        <time>2019-05-23T15:45:11.942Z</time>
      </trkpt>
      <trkpt lat="45.89866" lon="6.70767">
        <ele>661.20119684726</ele>
        <time>2019-05-23T15:45:12.187Z</time>
      </trkpt>
      <trkpt lat="45.89825" lon="6.70747">
        <ele>665.94433891084</ele>
        <time>2019-05-23T15:45:12.447Z</time>
      </trkpt>
      <trkpt lat="45.89751" lon="6.70734">
        <ele>672.02236507006</ele>
        <time>2019-05-23T15:45:12.732Z</time>
      </trkpt>
      <trkpt lat="45.89751" lon="6.70734">
        <ele>676.93486131222</ele>
        <time>2019-05-23T15:45:13.017Z</time>
      </trkpt>
      <trkpt lat="45.89751" lon="6.70734">
        <ele>681.55879598354</ele>
        <time>2019-05-23T15:45:13.302Z</time>
      </trkpt>
      <trkpt lat="45.89751" lon="6.70734">
        <ele>685.90734193021</ele>
        <time>2019-05-23T15:45:13.587Z</time>
      </trkpt>
      <trkpt lat="45.8975" lon="6.70734">
        <ele>690.00318986586</ele>
        <time>2019-05-23T15:45:13.872Z</time>
      </trkpt>
      <trkpt lat="45.89751" lon="6.70731">
        <ele>693.7868731554</ele>
        <time>2019-05-23T15:45:14.158Z</time>
      </trkpt>
      <trkpt lat="45.89718" lon="6.70727">
        <ele>697.33885136009</ele>
        <time>2019-05-23T15:45:14.455Z</time>
      </trkpt>
      <trkpt lat="45.89688" lon="6.70728">
        <ele>701.17853873067</ele>
        <time>2019-05-23T15:45:14.762Z</time>
      </trkpt>
      <trkpt lat="45.89679" lon="6.70735">
        <ele>705.21720551823</ele>
        <time>2019-05-23T15:45:15.072Z</time>
      </trkpt>
      <trkpt lat="45.89681" lon="6.70743">
        <ele>709.31295817555</ele>
        <time>2019-05-23T15:45:15.384Z</time>
      </trkpt>
      <trkpt lat="45.89704" lon="6.70744">
        <ele>712.68061351207</ele>
        <time>2019-05-23T15:45:15.703Z</time>
      </trkpt>
      <trkpt lat="45.89706" lon="6.70752">
        <ele>716.57756793509</ele>
        <time>2019-05-23T15:45:16.024Z</time>
      </trkpt>
      <trkpt lat="45.89668" lon="6.70762">
        <ele>721.11623819019</ele>
        <time>2019-05-23T15:45:16.358Z</time>
      </trkpt>
      <trkpt lat="45.89627" lon="6.70798">
        <ele>726.01542918351</ele>
        <time>2019-05-23T15:45:16.708Z</time>
      </trkpt>
      <trkpt lat="45.89605" lon="6.70813">
        <ele>729.73127057704</ele>
        <time>2019-05-23T15:45:17.066Z</time>
      </trkpt>
      <trkpt lat="45.89592" lon="6.70819">
        <ele>733.12617259411</ele>
        <time>2019-05-23T15:45:17.429Z</time>
      </trkpt>
      <trkpt lat="45.89584" lon="6.70832">
        <ele>736.41282247146</ele>
        <time>2019-05-23T15:45:17.796Z</time>
      </trkpt>
      <trkpt lat="45.89576" lon="6.70835">
        <ele>739.51837062328</ele>
        <time>2019-05-23T15:45:18.165Z</time>
      </trkpt>
      <trkpt lat="45.89576" lon="6.70835">
        <ele>742.67855520218</ele>
        <time>2019-05-23T15:45:18.534Z</time>
      </trkpt>
      <trkpt lat="45.89584" lon="6.70832">
        <ele>736.41282247146</ele>
        <time>2019-05-23T15:45:18.906Z</time>
      </trkpt>
      <trkpt lat="45.89583" lon="6.70842">
        <ele>749.33414912337</ele>
        <time>2019-05-23T15:45:19.280Z</time>
      </trkpt>
      <trkpt lat="45.89576" lon="6.7086">
        <ele>752.71031385453</ele>
        <time>2019-05-23T15:45:19.659Z</time>
      </trkpt>
      <trkpt lat="45.89562" lon="6.70875">
        <ele>755.73020373536</ele>
        <time>2019-05-23T15:45:20.044Z</time>
      </trkpt>
      <trkpt lat="45.89554" lon="6.70898">
        <ele>759.45552214598</ele>
        <time>2019-05-23T15:45:20.435Z</time>
      </trkpt>
      <trkpt lat="45.89554" lon="6.70898">
        <ele>762.55637665736</ele>
        <time>2019-05-23T15:45:20.826Z</time>
      </trkpt>
      <trkpt lat="45.89552" lon="6.70906">
        <ele>765.90362613915</ele>
        <time>2019-05-23T15:45:21.219Z</time>
      </trkpt>
      <trkpt lat="45.89538" lon="6.70944">
        <ele>770.37377729863</ele>
        <time>2019-05-23T15:45:21.622Z</time>
      </trkpt>
      <trkpt lat="45.89534" lon="6.70957">
        <ele>773.86415327697</ele>
        <time>2019-05-23T15:45:22.028Z</time>
      </trkpt>
      <trkpt lat="45.8953" lon="6.70971">
        <ele>777.2440786561</ele>
        <time>2019-05-23T15:45:22.438Z</time>
      </trkpt>
      <trkpt lat="45.89499" lon="6.70991">
        <ele>780.49868484055</ele>
        <time>2019-05-23T15:45:22.859Z</time>
      </trkpt>
      <trkpt lat="45.89499" lon="6.70991">
        <ele>783.24690258013</ele>
        <time>2019-05-23T15:45:23.280Z</time>
      </trkpt>
      <trkpt lat="45.89473" lon="6.71006">
        <ele>785.81228565003</ele>
        <time>2019-05-23T15:45:23.710Z</time>
      </trkpt>
      <trkpt lat="45.89451" lon="6.71031">
        <ele>788.06368830562</ele>
        <time>2019-05-23T15:45:24.150Z</time>
      </trkpt>
      <trkpt lat="45.89451" lon="6.71031">
        <ele>790.14675785986</ele>
        <time>2019-05-23T15:45:24.590Z</time>
      </trkpt>
      <trkpt lat="45.89412" lon="6.71022">
        <ele>791.96038493853</ele>
        <time>2019-05-23T15:45:25.043Z</time>
      </trkpt>
      <trkpt lat="45.89412" lon="6.71022">
        <ele>793.64748012032</ele>
        <time>2019-05-23T15:45:25.496Z</time>
      </trkpt>
      <trkpt lat="45.8934" lon="6.71004">
        <ele>794.94423839219</ele>
        <time>2019-05-23T15:45:25.973Z</time>
      </trkpt>
      <trkpt lat="45.89271" lon="6.70995">
        <ele>796.02826901506</ele>
        <time>2019-05-23T15:45:26.473Z</time>
      </trkpt>
      <trkpt lat="45.89271" lon="6.70995">
        <ele>797.21277454316</ele>
        <time>2019-05-23T15:45:26.973Z</time>
      </trkpt>
      <trkpt lat="45.89271" lon="6.70995">
        <ele>799.31576327424</ele>
        <time>2019-05-23T15:45:27.473Z</time>
      </trkpt>
      <trkpt lat="45.89262" lon="6.70994">
        <ele>800.24685201812</ele>
        <time>2019-05-23T15:45:27.976Z</time>
      </trkpt>
      <trkpt lat="45.8925" lon="6.71007">
        <ele>801.3445038192</ele>
        <time>2019-05-23T15:45:28.484Z</time>
      </trkpt>
      <trkpt lat="45.8925" lon="6.7101">
        <ele>802.2819495305</ele>
        <time>2019-05-23T15:45:28.993Z</time>
      </trkpt>
      <trkpt lat="45.89246" lon="6.71043">
        <ele>803.85116917831</ele>
        <time>2019-05-23T15:45:29.510Z</time>
      </trkpt>
      <trkpt lat="45.89238" lon="6.71057">
        <ele>805.01308234214</ele>
        <time>2019-05-23T15:45:30.031Z</time>
      </trkpt>
      <trkpt lat="45.89235" lon="6.71072">
        <ele>806.0524776167</ele>
        <time>2019-05-23T15:45:30.555Z</time>
      </trkpt>
      <trkpt lat="45.89222" lon="6.71123">
        <ele>806.98584806293</ele>
        <time>2019-05-23T15:45:31.092Z</time>
      </trkpt>
      <trkpt lat="45.89218" lon="6.71127">
        <ele>807.68878240788</ele>
        <time>2019-05-23T15:45:31.631Z</time>
      </trkpt>
      <trkpt lat="45.89215" lon="6.71128">
        <ele>808.29568580047</ele>
        <time>2019-05-23T15:45:32.171Z</time>
      </trkpt>
      <trkpt lat="45.89211" lon="6.71131">
        <ele>808.81604765949</ele>
        <time>2019-05-23T15:45:32.712Z</time>
      </trkpt>
      <trkpt lat="45.89211" lon="6.71131">
        <ele>809.26605406195</ele>
        <time>2019-05-23T15:45:33.253Z</time>
      </trkpt>
      <trkpt lat="45.89207" lon="6.71142">
        <ele>809.64629864285</ele>
        <time>2019-05-23T15:45:33.797Z</time>
      </trkpt>
      <trkpt lat="45.89208" lon="6.71156">
        <ele>809.99673797047</ele>
        <time>2019-05-23T15:45:34.345Z</time>
      </trkpt>
      <trkpt lat="45.89209" lon="6.71168">
        <ele>810.27167797881</ele>
        <time>2019-05-23T15:45:34.895Z</time>
      </trkpt>
      <trkpt lat="45.89202" lon="6.71182">
        <ele>810.37882608885</ele>
        <time>2019-05-23T15:45:35.449Z</time>
      </trkpt>
      <trkpt lat="45.89199" lon="6.7122">
        <ele>810.41233006017</ele>
        <time>2019-05-23T15:45:36.012Z</time>
      </trkpt>
      <trkpt lat="45.89185" lon="6.71268">
        <ele>810.39549156366</ele>
        <time>2019-05-23T15:45:36.587Z</time>
      </trkpt>
      <trkpt lat="45.89185" lon="6.71268">
        <ele>810.35376521329</ele>
        <time>2019-05-23T15:45:37.162Z</time>
      </trkpt>
      <trkpt lat="45.89182" lon="6.71275">
        <ele>810.3179915997</ele>
        <time>2019-05-23T15:45:37.739Z</time>
      </trkpt>
      <trkpt lat="45.89178" lon="6.71284">
        <ele>810.26002183557</ele>
        <time>2019-05-23T15:45:38.319Z</time>
      </trkpt>
      <trkpt lat="45.89175" lon="6.71286">
        <ele>810.15892570404</ele>
        <time>2019-05-23T15:45:38.900Z</time>
      </trkpt>
      <trkpt lat="45.89172" lon="6.71286">
        <ele>810.02217682697</ele>
        <time>2019-05-23T15:45:39.482Z</time>
      </trkpt>
      <trkpt lat="45.89172" lon="6.71286">
        <ele>809.83569473278</ele>
        <time>2019-05-23T15:45:40.064Z</time>
      </trkpt>
      <trkpt lat="45.89168" lon="6.71285">
        <ele>809.66168548457</ele>
        <time>2019-05-23T15:45:40.647Z</time>
      </trkpt>
      <trkpt lat="45.89164" lon="6.71273">
        <ele>809.40891278733</ele>
        <time>2019-05-23T15:45:41.233Z</time>
      </trkpt>
      <trkpt lat="45.89157" lon="6.71244">
        <ele>809.08759911917</ele>
        <time>2019-05-23T15:45:41.826Z</time>
      </trkpt>
      <trkpt lat="45.89149" lon="6.7123">
        <ele>808.86491053379</ele>
        <time>2019-05-23T15:45:42.423Z</time>
      </trkpt>
      <trkpt lat="45.89128" lon="6.71212">
        <ele>808.4765683216</ele>
        <time>2019-05-23T15:45:43.029Z</time>
      </trkpt>
      <trkpt lat="45.89123" lon="6.71213">
        <ele>808.32933149976</ele>
        <time>2019-05-23T15:45:43.636Z</time>
      </trkpt>
      <trkpt lat="45.89123" lon="6.71212">
        <ele>808.225134203</ele>
        <time>2019-05-23T15:45:44.243Z</time>
      </trkpt>
      <trkpt lat="45.89123" lon="6.71213">
        <ele>808.32933149976</ele>
        <time>2019-05-23T15:45:44.851Z</time>
      </trkpt>
      <trkpt lat="45.89115" lon="6.71214">
        <ele>808.16530527106</ele>
        <time>2019-05-23T15:45:45.461Z</time>
      </trkpt>
      <trkpt lat="45.89094" lon="6.71224">
        <ele>808.27650458806</ele>
        <time>2019-05-23T15:45:46.079Z</time>
      </trkpt>
      <trkpt lat="45.89093" lon="6.71226">
        <ele>808.44878037505</ele>
        <time>2019-05-23T15:45:46.697Z</time>
      </trkpt>
      <trkpt lat="45.89094" lon="6.71228">
        <ele>808.71989081619</ele>
        <time>2019-05-23T15:45:47.316Z</time>
      </trkpt>
      <trkpt lat="45.89094" lon="6.71228">
        <ele>809.39007446882</ele>
        <time>2019-05-23T15:45:47.935Z</time>
      </trkpt>
      <trkpt lat="45.89031" lon="6.71267">
        <ele>810.30300182628</ele>
        <time>2019-05-23T15:45:48.577Z</time>
      </trkpt>
      <trkpt lat="45.89031" lon="6.71267">
        <ele>811.40068411684</ele>
        <time>2019-05-23T15:45:49.219Z</time>
      </trkpt>
      <trkpt lat="45.89031" lon="6.71267">
        <ele>812.02116738011</ele>
        <time>2019-05-23T15:45:49.861Z</time>
      </trkpt>
      <trkpt lat="45.8903" lon="6.71267">
        <ele>812.68398195483</ele>
        <time>2019-05-23T15:45:50.503Z</time>
      </trkpt>
      <trkpt lat="45.8903" lon="6.71267">
        <ele>813.38476685779</ele>
        <time>2019-05-23T15:45:51.145Z</time>
      </trkpt>
      <trkpt lat="45.89014" lon="6.71281">
        <ele>814.23926618767</ele>
        <time>2019-05-23T15:45:51.794Z</time>
      </trkpt>
      <trkpt lat="45.88976" lon="6.713">
        <ele>814.78189666026</ele>
        <time>2019-05-23T15:45:52.456Z</time>
      </trkpt>
      <trkpt lat="45.88974" lon="6.71308">
        <ele>815.59575764463</ele>
        <time>2019-05-23T15:45:53.120Z</time>
      </trkpt>
      <trkpt lat="45.88954" lon="6.71311">
        <ele>816.23638101105</ele>
        <time>2019-05-23T15:45:53.790Z</time>
      </trkpt>
      <trkpt lat="45.88925" lon="6.7131">
        <ele>817.10757160773</ele>
        <time>2019-05-23T15:45:54.470Z</time>
      </trkpt>
      <trkpt lat="45.88897" lon="6.71293">
        <ele>817.84612512047</ele>
        <time>2019-05-23T15:45:55.160Z</time>
      </trkpt>
      <trkpt lat="45.88878" lon="6.71303">
        <ele>818.76320696749</ele>
        <time>2019-05-23T15:45:55.857Z</time>
      </trkpt>
      <trkpt lat="45.88721" lon="6.71283">
        <ele>819.82866603257</ele>
        <time>2019-05-23T15:45:56.607Z</time>
      </trkpt>
      <trkpt lat="45.88696" lon="6.71293">
        <ele>821.19696420381</ele>
        <time>2019-05-23T15:45:57.365Z</time>
      </trkpt>
      <trkpt lat="45.88675" lon="6.71332">
        <ele>822.47353260769</ele>
        <time>2019-05-23T15:45:58.135Z</time>
      </trkpt>
      <trkpt lat="45.88663" lon="6.71332">
        <ele>823.25311974411</ele>
        <time>2019-05-23T15:45:58.909Z</time>
      </trkpt>
      <trkpt lat="45.8866" lon="6.71322">
        <ele>823.96601857608</ele>
        <time>2019-05-23T15:45:59.685Z</time>
      </trkpt>
      <trkpt lat="45.88666" lon="6.71308">
        <ele>824.6362493413</ele>
        <time>2019-05-23T15:46:00.465Z</time>
      </trkpt>
      <trkpt lat="45.88663" lon="6.71298">
        <ele>825.1841775096</ele>
        <time>2019-05-23T15:46:01.248Z</time>
      </trkpt>
      <trkpt lat="45.88657" lon="6.71298">
        <ele>825.70743834178</ele>
        <time>2019-05-23T15:46:02.033Z</time>
      </trkpt>
      <trkpt lat="45.88615" lon="6.71327">
        <ele>826.21051853662</ele>
        <time>2019-05-23T15:46:02.833Z</time>
      </trkpt>
      <trkpt lat="45.88615" lon="6.71327">
        <ele>826.94001339986</ele>
        <time>2019-05-23T15:46:03.633Z</time>
      </trkpt>
      <trkpt lat="45.88615" lon="6.71327">
        <ele>827.19762295528</ele>
        <time>2019-05-23T15:46:04.433Z</time>
      </trkpt>
      <trkpt lat="45.88615" lon="6.71327">
        <ele>827.3874282528</ele>
        <time>2019-05-23T15:46:05.233Z</time>
      </trkpt>
      <trkpt lat="45.88615" lon="6.71327">
        <ele>827.51259224582</ele>
        <time>2019-05-23T15:46:06.033Z</time>
      </trkpt>
      <trkpt lat="45.88603" lon="6.71335">
        <ele>827.62832601338</ele>
        <time>2019-05-23T15:46:06.838Z</time>
      </trkpt>
      <trkpt lat="45.88572" lon="6.71368">
        <ele>827.75126480771</ele>
        <time>2019-05-23T15:46:07.655Z</time>
      </trkpt>
      <trkpt lat="45.88556" lon="6.71399">
        <ele>827.83964920061</ele>
        <time>2019-05-23T15:46:08.481Z</time>
      </trkpt>
      <trkpt lat="45.88534" lon="6.71367">
        <ele>827.77878881778</ele>
        <time>2019-05-23T15:46:09.318Z</time>
      </trkpt>
      <trkpt lat="45.88471" lon="6.71318">
        <ele>827.69731131815</ele>
        <time>2019-05-23T15:46:10.179Z</time>
      </trkpt>
      <trkpt lat="45.88394" lon="6.7123">
        <ele>827.60937038163</ele>
        <time>2019-05-23T15:46:11.073Z</time>
      </trkpt>
      <trkpt lat="45.88328" lon="6.71252">
        <ele>827.64256743843</ele>
        <time>2019-05-23T15:46:11.989Z</time>
      </trkpt>
      <trkpt lat="45.88313" lon="6.71242">
        <ele>827.49860888974</ele>
        <time>2019-05-23T15:46:12.911Z</time>
      </trkpt>
      <trkpt lat="45.88298" lon="6.71205">
        <ele>827.34074415735</ele>
        <time>2019-05-23T15:46:13.843Z</time>
      </trkpt>
      <trkpt lat="45.88279" lon="6.71186">
        <ele>827.15332795113</ele>
        <time>2019-05-23T15:46:14.782Z</time>
      </trkpt>
      <trkpt lat="45.88229" lon="6.71158">
        <ele>826.91684873304</ele>
        <time>2019-05-23T15:46:15.739Z</time>
      </trkpt>
      <trkpt lat="45.88213" lon="6.71158">
        <ele>826.79138209792</ele>
        <time>2019-05-23T15:46:16.702Z</time>
      </trkpt>
      <trkpt lat="45.88202" lon="6.7118">
        <ele>826.9388397525</ele>
        <time>2019-05-23T15:46:17.671Z</time>
      </trkpt>
      <trkpt lat="45.88199" lon="6.71169">
        <ele>827.03395235519</ele>
        <time>2019-05-23T15:46:18.643Z</time>
      </trkpt>
      <trkpt lat="45.88192" lon="6.71169">
        <ele>827.30124984022</ele>
        <time>2019-05-23T15:46:19.617Z</time>
      </trkpt>
      <trkpt lat="45.88067" lon="6.71281">
        <ele>827.96001057517</ele>
        <time>2019-05-23T15:46:20.640Z</time>
      </trkpt>
      <trkpt lat="45.88062" lon="6.71277">
        <ele>828.57011827682</ele>
        <time>2019-05-23T15:46:21.665Z</time>
      </trkpt>
      <trkpt lat="45.88062" lon="6.71277">
        <ele>830.36014671962</ele>
        <time>2019-05-23T15:46:22.690Z</time>
      </trkpt>
      <trkpt lat="45.88062" lon="6.71277">
        <ele>831.56545693119</ele>
        <time>2019-05-23T15:46:23.715Z</time>
      </trkpt>
      <trkpt lat="45.88062" lon="6.71277">
        <ele>832.99693059791</ele>
        <time>2019-05-23T15:46:24.740Z</time>
      </trkpt>
      <trkpt lat="45.88062" lon="6.71277">
        <ele>834.66704187964</ele>
        <time>2019-05-23T15:46:25.765Z</time>
      </trkpt>
      <trkpt lat="45.88055" lon="6.71272">
        <ele>836.57977964434</ele>
        <time>2019-05-23T15:46:26.792Z</time>
      </trkpt>
      <trkpt lat="45.88042" lon="6.71242">
        <ele>838.69765329351</ele>
        <time>2019-05-23T15:46:27.828Z</time>
      </trkpt>
      <trkpt lat="45.87965" lon="6.71209">
        <ele>842.05702691693</ele>
        <time>2019-05-23T15:46:28.891Z</time>
      </trkpt>
      <trkpt lat="45.87953" lon="6.7124">
        <ele>844.46924715671</ele>
        <time>2019-05-23T15:46:29.962Z</time>
      </trkpt>
      <trkpt lat="45.87805" lon="6.71367">
        <ele>848.19334712075</ele>
        <time>2019-05-23T15:46:31.090Z</time>
      </trkpt>
      <trkpt lat="45.8774" lon="6.71492">
        <ele>851.09634428455</ele>
        <time>2019-05-23T15:46:32.255Z</time>
      </trkpt>
      <trkpt lat="45.87711" lon="6.71505">
        <ele>854.49626320523</ele>
        <time>2019-05-23T15:46:33.430Z</time>
      </trkpt>
      <trkpt lat="45.8762" lon="6.71513">
        <ele>858.31058656649</ele>
        <time>2019-05-23T15:46:34.635Z</time>
      </trkpt>
      <trkpt lat="45.87597" lon="6.71507">
        <ele>862.30002232002</ele>
        <time>2019-05-23T15:46:35.848Z</time>
      </trkpt>
      <trkpt lat="45.87572" lon="6.71486">
        <ele>866.78587252721</ele>
        <time>2019-05-23T15:46:37.071Z</time>
      </trkpt>
      <trkpt lat="45.87539" lon="6.71501">
        <ele>871.39517336591</ele>
        <time>2019-05-23T15:46:38.305Z</time>
      </trkpt>
      <trkpt lat="45.87517" lon="6.71523">
        <ele>875.91924346565</ele>
        <time>2019-05-23T15:46:39.548Z</time>
      </trkpt>
      <trkpt lat="45.87474" lon="6.716">
        <ele>880.3698127582</ele>
        <time>2019-05-23T15:46:40.814Z</time>
      </trkpt>
      <trkpt lat="45.87448" lon="6.71628">
        <ele>885.17692011223</ele>
        <time>2019-05-23T15:46:42.091Z</time>
      </trkpt>
      <trkpt lat="45.87415" lon="6.71653">
        <ele>890.25542897935</ele>
        <time>2019-05-23T15:46:43.380Z</time>
      </trkpt>
      <trkpt lat="45.87357" lon="6.71679">
        <ele>896.14076990488</ele>
        <time>2019-05-23T15:46:44.690Z</time>
      </trkpt>
      <trkpt lat="45.87319" lon="6.71735">
        <ele>901.94173226771</ele>
        <time>2019-05-23T15:46:46.018Z</time>
      </trkpt>
      <trkpt lat="45.87273" lon="6.7183">
        <ele>907.06675669685</ele>
        <time>2019-05-23T15:46:47.373Z</time>
      </trkpt>
      <trkpt lat="45.87254" lon="6.71849">
        <ele>912.34060837249</ele>
        <time>2019-05-23T15:46:48.735Z</time>
      </trkpt>
      <trkpt lat="45.87223" lon="6.71856">
        <ele>918.00703852158</ele>
        <time>2019-05-23T15:46:50.108Z</time>
      </trkpt>
      <trkpt lat="45.87223" lon="6.71856">
        <ele>922.87176649265</ele>
        <time>2019-05-23T15:46:51.481Z</time>
      </trkpt>
      <trkpt lat="45.87212" lon="6.71847">
        <ele>928.01705536764</ele>
        <time>2019-05-23T15:46:52.858Z</time>
      </trkpt>
      <trkpt lat="45.87197" lon="6.71851">
        <ele>932.90000471958</ele>
        <time>2019-05-23T15:46:54.240Z</time>
      </trkpt>
      <trkpt lat="45.87171" lon="6.71832">
        <ele>938.12630671105</ele>
        <time>2019-05-23T15:46:55.632Z</time>
      </trkpt>
      <trkpt lat="45.87078" lon="6.71923">
        <ele>942.79501464351</ele>
        <time>2019-05-23T15:46:57.062Z</time>
      </trkpt>
      <trkpt lat="45.8703" lon="6.71944">
        <ele>947.0141439803</ele>
        <time>2019-05-23T15:46:58.508Z</time>
      </trkpt>
      <trkpt lat="45.86993" lon="6.72004">
        <ele>950.13205388047</ele>
        <time>2019-05-23T15:46:59.973Z</time>
      </trkpt>
      <trkpt lat="45.86925" lon="6.72077">
        <ele>951.76994739919</ele>
        <time>2019-05-23T15:47:01.466Z</time>
      </trkpt>
      <trkpt lat="45.86878" lon="6.72109">
        <ele>954.49139499261</ele>
        <time>2019-05-23T15:47:02.977Z</time>
      </trkpt>
      <trkpt lat="45.86821" lon="6.72111">
        <ele>957.23789514381</ele>
        <time>2019-05-23T15:47:04.507Z</time>
      </trkpt>
      <trkpt lat="45.86821" lon="6.72111">
        <ele>959.05249763408</ele>
        <time>2019-05-23T15:47:06.037Z</time>
      </trkpt>
      <trkpt lat="45.86821" lon="6.72111">
        <ele>961.57644246164</ele>
        <time>2019-05-23T15:47:07.567Z</time>
      </trkpt>
      <trkpt lat="45.86821" lon="6.72111">
        <ele>962.30564374118</ele>
        <time>2019-05-23T15:47:09.097Z</time>
      </trkpt>
      <trkpt lat="45.86821" lon="6.72111">
        <ele>962.69716917796</ele>
        <time>2019-05-23T15:47:10.627Z</time>
      </trkpt>
      <trkpt lat="45.86735" lon="6.72115">
        <ele>963.68782994534</ele>
        <time>2019-05-23T15:47:12.185Z</time>
      </trkpt>
      <trkpt lat="45.86706" lon="6.72124">
        <ele>964.04123605677</ele>
        <time>2019-05-23T15:47:13.753Z</time>
      </trkpt>
      <trkpt lat="45.86678" lon="6.72136">
        <ele>963.38572880046</ele>
        <time>2019-05-23T15:47:15.331Z</time>
      </trkpt>
      <trkpt lat="45.86628" lon="6.72189">
        <ele>962.00609628212</ele>
        <time>2019-05-23T15:47:16.930Z</time>
      </trkpt>
      <trkpt lat="45.86626" lon="6.722">
        <ele>960.84480728377</ele>
        <time>2019-05-23T15:47:18.531Z</time>
      </trkpt>
      <trkpt lat="45.86588" lon="6.72221">
        <ele>959.62656361126</ele>
        <time>2019-05-23T15:47:20.146Z</time>
      </trkpt>
      <trkpt lat="45.86539" lon="6.7228">
        <ele>957.49390466111</ele>
        <time>2019-05-23T15:47:21.782Z</time>
      </trkpt>
      <trkpt lat="45.86518" lon="6.72292">
        <ele>956.27376944922</ele>
        <time>2019-05-23T15:47:23.426Z</time>
      </trkpt>
      <trkpt lat="45.86509" lon="6.72339">
        <ele>954.47088588232</ele>
        <time>2019-05-23T15:47:25.081Z</time>
      </trkpt>
      <trkpt lat="45.86479" lon="6.7238">
        <ele>952.8191862128</ele>
        <time>2019-05-23T15:47:26.750Z</time>
      </trkpt>
      <trkpt lat="45.8645" lon="6.72405">
        <ele>951.32751519404</ele>
        <time>2019-05-23T15:47:28.430Z</time>
      </trkpt>
      <trkpt lat="45.86412" lon="6.72423">
        <ele>950.20868385307</ele>
        <time>2019-05-23T15:47:30.124Z</time>
      </trkpt>
      <trkpt lat="45.86408" lon="6.72432">
        <ele>949.32223804988</ele>
        <time>2019-05-23T15:47:31.820Z</time>
      </trkpt>
      <trkpt lat="45.86381" lon="6.72448">
        <ele>948.68282994539</ele>
        <time>2019-05-23T15:47:33.526Z</time>
      </trkpt>
      <trkpt lat="45.86317" lon="6.72518">
        <ele>948.61649979816</ele>
        <time>2019-05-23T15:47:35.259Z</time>
      </trkpt>
      <trkpt lat="45.86277" lon="6.72657">
        <ele>948.43387982961</ele>
        <time>2019-05-23T15:47:37.027Z</time>
      </trkpt>
      <trkpt lat="45.8626" lon="6.72682">
        <ele>948.69139193789</ele>
        <time>2019-05-23T15:47:38.803Z</time>
      </trkpt>
      <trkpt lat="45.86188" lon="6.72728">
        <ele>949.39847209198</ele>
        <time>2019-05-23T15:47:40.605Z</time>
      </trkpt>
      <trkpt lat="45.86137" lon="6.72754">
        <ele>950.13535319814</ele>
        <time>2019-05-23T15:47:42.425Z</time>
      </trkpt>
      <trkpt lat="45.8611" lon="6.72758">
        <ele>951.22737678274</ele>
        <time>2019-05-23T15:47:44.254Z</time>
      </trkpt>
      <trkpt lat="45.86079" lon="6.72789">
        <ele>952.8600003325</ele>
        <time>2019-05-23T15:47:46.096Z</time>
      </trkpt>
      <trkpt lat="45.86031" lon="6.72902">
        <ele>954.5668471564</ele>
        <time>2019-05-23T15:47:47.969Z</time>
      </trkpt>
      <trkpt lat="45.86012" lon="6.72923">
        <ele>956.53431955928</ele>
        <time>2019-05-23T15:47:49.850Z</time>
      </trkpt>
      <trkpt lat="45.85891" lon="6.73005">
        <ele>959.66378380581</ele>
        <time>2019-05-23T15:47:51.775Z</time>
      </trkpt>
      <trkpt lat="45.85885" lon="6.72986">
        <ele>962.55498820422</ele>
        <time>2019-05-23T15:47:53.705Z</time>
      </trkpt>
      <trkpt lat="45.85875" lon="6.72979">
        <ele>965.72429388883</ele>
        <time>2019-05-23T15:47:55.639Z</time>
      </trkpt>
      <trkpt lat="45.85875" lon="6.72979">
        <ele>968.79854578594</ele>
        <time>2019-05-23T15:47:57.573Z</time>
      </trkpt>
      <trkpt lat="45.85819" lon="6.73019">
        <ele>972.1352686016</ele>
        <time>2019-05-23T15:47:59.528Z</time>
      </trkpt>
      <trkpt lat="45.85761" lon="6.73035">
        <ele>976.34713256942</ele>
        <time>2019-05-23T15:48:01.503Z</time>
      </trkpt>
      <trkpt lat="45.85692" lon="6.73035">
        <ele>980.01538202177</ele>
        <time>2019-05-23T15:48:03.501Z</time>
      </trkpt>
      <trkpt lat="45.85607" lon="6.7302">
        <ele>984.00884150164</ele>
        <time>2019-05-23T15:48:05.527Z</time>
      </trkpt>
      <trkpt lat="45.85565" lon="6.73001">
        <ele>988.01774324367</ele>
        <time>2019-05-23T15:48:07.568Z</time>
      </trkpt>
      <trkpt lat="45.85486" lon="6.72944">
        <ele>992.28106684053</ele>
        <time>2019-05-23T15:48:09.638Z</time>
      </trkpt>
      <trkpt lat="45.85403" lon="6.72867">
        <ele>996.47342680289</ele>
        <time>2019-05-23T15:48:11.742Z</time>
      </trkpt>
      <trkpt lat="45.85333" lon="6.72868">
        <ele>999.70229617729</ele>
        <time>2019-05-23T15:48:13.869Z</time>
      </trkpt>
      <trkpt lat="45.85295" lon="6.72884">
        <ele>1002.3881079556</ele>
        <time>2019-05-23T15:48:16.009Z</time>
      </trkpt>
      <trkpt lat="45.85254" lon="6.72883">
        <ele>1005.1739758676</ele>
        <time>2019-05-23T15:48:18.163Z</time>
      </trkpt>
      <trkpt lat="45.85254" lon="6.72883">
        <ele>1008.0129476881</ele>
        <time>2019-05-23T15:48:20.317Z</time>
      </trkpt>
      <trkpt lat="45.85254" lon="6.72883">
        <ele>1013.2436282235</ele>
        <time>2019-05-23T15:48:22.471Z</time>
      </trkpt>
      <trkpt lat="45.85254" lon="6.72883">
        <ele>1015.6413808214</ele>
        <time>2019-05-23T15:48:24.625Z</time>
      </trkpt>
      <trkpt lat="45.85254" lon="6.72883">
        <ele>1017.9036494193</ele>
        <time>2019-05-23T15:48:26.779Z</time>
      </trkpt>
      <trkpt lat="45.85202" lon="6.72882">
        <ele>1020.0028344727</ele>
        <time>2019-05-23T15:48:28.950Z</time>
      </trkpt>
      <trkpt lat="45.85188" lon="6.72872">
        <ele>1022.1356310702</ele>
        <time>2019-05-23T15:48:31.126Z</time>
      </trkpt>
      <trkpt lat="45.85134" lon="6.72886">
        <ele>1023.7079535953</ele>
        <time>2019-05-23T15:48:33.320Z</time>
      </trkpt>
      <trkpt lat="45.85119" lon="6.72877">
        <ele>1025.7173176093</ele>
        <time>2019-05-23T15:48:35.520Z</time>
      </trkpt>
      <trkpt lat="45.85109" lon="6.72856">
        <ele>1027.7134618875</ele>
        <time>2019-05-23T15:48:37.726Z</time>
      </trkpt>
      <trkpt lat="45.84972" lon="6.72835">
        <ele>1029.1261320204</ele>
        <time>2019-05-23T15:48:39.978Z</time>
      </trkpt>
      <trkpt lat="45.84972" lon="6.72809">
        <ele>1031.298008823</ele>
        <time>2019-05-23T15:48:42.236Z</time>
      </trkpt>
      <trkpt lat="45.84866" lon="6.72804">
        <ele>1032.71768729</ele>
        <time>2019-05-23T15:48:44.529Z</time>
      </trkpt>
      <trkpt lat="45.84689" lon="6.72758">
        <ele>1034.6861513433</ele>
        <time>2019-05-23T15:48:46.882Z</time>
      </trkpt>
      <trkpt lat="45.84678" lon="6.72744">
        <ele>1036.4867259316</ele>
        <time>2019-05-23T15:48:49.240Z</time>
      </trkpt>
      <trkpt lat="45.84678" lon="6.72733">
        <ele>1038.2623054888</ele>
        <time>2019-05-23T15:48:51.601Z</time>
      </trkpt>
      <trkpt lat="45.84666" lon="6.72729">
        <ele>1039.8853326485</ele>
        <time>2019-05-23T15:48:53.966Z</time>
      </trkpt>
      <trkpt lat="45.84659" lon="6.7275">
        <ele>1041.175451604</ele>
        <time>2019-05-23T15:48:56.336Z</time>
      </trkpt>
      <trkpt lat="45.84625" lon="6.72755">
        <ele>1042.4490787255</ele>
        <time>2019-05-23T15:48:58.718Z</time>
      </trkpt>
      <trkpt lat="45.84552" lon="6.72708">
        <ele>1045.1602770957</ele>
        <time>2019-05-23T15:49:01.126Z</time>
      </trkpt>
      <trkpt lat="45.84516" lon="6.7271">
        <ele>1046.8104972928</ele>
        <time>2019-05-23T15:49:03.546Z</time>
      </trkpt>
      <trkpt lat="45.84478" lon="6.7273">
        <ele>1048.1559132673</ele>
        <time>2019-05-23T15:49:05.980Z</time>
      </trkpt>
      <trkpt lat="45.84415" lon="6.72744">
        <ele>1049.9552013181</ele>
        <time>2019-05-23T15:49:08.435Z</time>
      </trkpt>
      <trkpt lat="45.84405" lon="6.7274">
        <ele>1028.9</ele>
      </trkpt>
      <trkpt lat="45.84405" lon="6.7274">
        <ele>1028.9</ele>
      </trkpt>
      <trkpt lat="45.84373" lon="6.72761">
        <ele>1022.9</ele>
      </trkpt>
      <trkpt lat="45.84373" lon="6.72761">
        <ele>1022.9</ele>
      </trkpt>
      <trkpt lat="45.84356" lon="6.72769">
        <ele>1020.9</ele>
      </trkpt>
      <trkpt lat="45.84356" lon="6.72769">
        <ele>1020.9</ele>
      </trkpt>
      <trkpt lat="45.84337" lon="6.72768">
        <ele>1020.1</ele>
      </trkpt>
      <trkpt lat="45.84337" lon="6.72768">
        <ele>1020.1</ele>
      </trkpt>
      <trkpt lat="45.84327" lon="6.72778">
        <ele>1018.6</ele>
      </trkpt>
      <trkpt lat="45.84327" lon="6.72778">
        <ele>1018.6</ele>
      </trkpt>
      <trkpt lat="45.84335" lon="6.72872">
        <ele>1013.9</ele>
      </trkpt>
      <trkpt lat="45.84335" lon="6.72872">
        <ele>1013.9</ele>
      </trkpt>
      <trkpt lat="45.8437" lon="6.72916">
        <ele>1016.4</ele>
      </trkpt>
      <trkpt lat="45.8437" lon="6.72916">
        <ele>1016.4</ele>
      </trkpt>
      <trkpt lat="45.8438" lon="6.72971">
        <ele>1018.8</ele>
      </trkpt>
      <trkpt lat="45.8438" lon="6.72971">
        <ele>1018.8</ele>
      </trkpt>
      <trkpt lat="45.84381" lon="6.73015">
        <ele>1020.5</ele>
      </trkpt>
      <trkpt lat="45.84381" lon="6.73015">
        <ele>1020.5</ele>
      </trkpt>
      <trkpt lat="45.84383" lon="6.73037">
        <ele>1021.2</ele>
      </trkpt>
      <trkpt lat="45.84383" lon="6.73037">
        <ele>1021.2</ele>
      </trkpt>
      <trkpt lat="45.84406" lon="6.73057">
        <ele>1022</ele>
      </trkpt>
      <trkpt lat="45.84406" lon="6.73057">
        <ele>1022</ele>
      </trkpt>
      <trkpt lat="45.84431" lon="6.73175">
        <ele>1028</ele>
      </trkpt>
      <trkpt lat="45.84431" lon="6.73175">
        <ele>1028</ele>
      </trkpt>
      <trkpt lat="45.8443" lon="6.73201">
        <ele>1029.7</ele>
      </trkpt>
      <trkpt lat="45.8443" lon="6.73201">
        <ele>1029.7</ele>
      </trkpt>
      <trkpt lat="45.84416" lon="6.73241">
        <ele>1031.5</ele>
      </trkpt>
      <trkpt lat="45.84416" lon="6.73241">
        <ele>1031.5</ele>
      </trkpt>
      <trkpt lat="45.84428" lon="6.73286">
        <ele>1039.9</ele>
      </trkpt>
      <trkpt lat="45.84428" lon="6.73286">
        <ele>1039.9</ele>
      </trkpt>
      <trkpt lat="45.84499" lon="6.73333">
        <ele>1047</ele>
      </trkpt>
      <trkpt lat="45.84499" lon="6.73333">
        <ele>1047</ele>
      </trkpt>
      <trkpt lat="45.84542" lon="6.73356">
        <ele>1055.6</ele>
      </trkpt>
      <trkpt lat="45.84542" lon="6.73356">
        <ele>1055.6</ele>
      </trkpt>
      <trkpt lat="45.84578" lon="6.7337">
        <ele>1059.5</ele>
      </trkpt>
      <trkpt lat="45.84578" lon="6.7337">
        <ele>1059.5</ele>
      </trkpt>
      <trkpt lat="45.84588" lon="6.73418">
        <ele>1068.6</ele>
      </trkpt>
      <trkpt lat="45.84588" lon="6.73418">
        <ele>1068.6</ele>
      </trkpt>
      <trkpt lat="45.84592" lon="6.73436">
        <ele>1073.8</ele>
      </trkpt>
      <trkpt lat="45.84592" lon="6.73436">
        <ele>1073.8</ele>
      </trkpt>
      <trkpt lat="45.84606" lon="6.73439">
        <ele>1072.5</ele>
      </trkpt>
      <trkpt lat="45.84606" lon="6.73439">
        <ele>1072.5</ele>
      </trkpt>
      <trkpt lat="45.8461" lon="6.73448">
        <ele>1074.6</ele>
      </trkpt>
      <trkpt lat="45.8461" lon="6.73448">
        <ele>1074.6</ele>
      </trkpt>
      <trkpt lat="45.84576" lon="6.735">
        <ele>1096.7</ele>
      </trkpt>
      <trkpt lat="45.84576" lon="6.735">
        <ele>1096.7</ele>
      </trkpt>
      <trkpt lat="45.84576" lon="6.73567">
        <ele>1109.4</ele>
      </trkpt>
      <trkpt lat="45.84576" lon="6.73567">
        <ele>1109.4</ele>
      </trkpt>
      <trkpt lat="45.84519" lon="6.73575">
        <ele>1128.2</ele>
      </trkpt>
      <trkpt lat="45.84519" lon="6.73575">
        <ele>1128.2</ele>
      </trkpt>
      <trkpt lat="45.84494" lon="6.7357">
        <ele>1133.1</ele>
      </trkpt>
      <trkpt lat="45.84494" lon="6.7357">
        <ele>1133.1</ele>
      </trkpt>
      <trkpt lat="45.84471" lon="6.7355">
        <ele>1129.2</ele>
      </trkpt>
      <trkpt lat="45.84471" lon="6.7355">
        <ele>1129.2</ele>
      </trkpt>
      <trkpt lat="45.84439" lon="6.73542">
        <ele>1128.1</ele>
      </trkpt>
      <trkpt lat="45.84439" lon="6.73542">
        <ele>1128.1</ele>
      </trkpt>
      <trkpt lat="45.84423" lon="6.73535">
        <ele>1126.3</ele>
      </trkpt>
      <trkpt lat="45.84423" lon="6.73535">
        <ele>1126.3</ele>
      </trkpt>
      <trkpt lat="45.84399" lon="6.73505">
        <ele>1117.7</ele>
      </trkpt>
      <trkpt lat="45.84399" lon="6.73505">
        <ele>1117.7</ele>
      </trkpt>
      <trkpt lat="45.84387" lon="6.73501">
        <ele>1118</ele>
      </trkpt>
      <trkpt lat="45.84387" lon="6.73501">
        <ele>1118</ele>
      </trkpt>
      <trkpt lat="45.84358" lon="6.73521">
        <ele>1130.9</ele>
      </trkpt>
      <trkpt lat="45.84358" lon="6.73521">
        <ele>1130.9</ele>
      </trkpt>
      <trkpt lat="45.84316" lon="6.735">
        <ele>1131.7</ele>
      </trkpt>
      <trkpt lat="45.84316" lon="6.735">
        <ele>1131.7</ele>
      </trkpt>
      <trkpt lat="45.84297" lon="6.73476">
        <ele>1130.7</ele>
      </trkpt>
      <trkpt lat="45.84297" lon="6.73476">
        <ele>1130.7</ele>
      </trkpt>
      <trkpt lat="45.84263" lon="6.73408">
        <ele>1125.5</ele>
      </trkpt>
      <trkpt lat="45.84263" lon="6.73408">
        <ele>1125.5</ele>
      </trkpt>
      <trkpt lat="45.84249" lon="6.73405">
        <ele>1130.3</ele>
      </trkpt>
      <trkpt lat="45.84249" lon="6.73405">
        <ele>1130.3</ele>
      </trkpt>
      <trkpt lat="45.84232" lon="6.73416">
        <ele>1135</ele>
      </trkpt>
      <trkpt lat="45.84232" lon="6.73416">
        <ele>1135</ele>
      </trkpt>
      <trkpt lat="45.84184" lon="6.73419">
        <ele>1138.4</ele>
      </trkpt>
      <trkpt lat="45.84184" lon="6.73419">
        <ele>1138.4</ele>
      </trkpt>
      <trkpt lat="45.84152" lon="6.73442">
        <ele>1144.7</ele>
      </trkpt>
      <trkpt lat="45.84152" lon="6.73442">
        <ele>1144.7</ele>
      </trkpt>
      <trkpt lat="45.84125" lon="6.73422">
        <ele>1143</ele>
      </trkpt>
      <trkpt lat="45.84125" lon="6.73422">
        <ele>1143</ele>
      </trkpt>
      <trkpt lat="45.84116" lon="6.7343">
        <ele>1145.3</ele>
      </trkpt>
      <trkpt lat="45.84116" lon="6.7343">
        <ele>1145.3</ele>
      </trkpt>
      <trkpt lat="45.84054" lon="6.7341">
        <ele>1151.8</ele>
      </trkpt>
      <trkpt lat="45.84054" lon="6.7341">
        <ele>1151.8</ele>
      </trkpt>
      <trkpt lat="45.8394" lon="6.73337">
        <ele>1155.3</ele>
      </trkpt>
      <trkpt lat="45.8394" lon="6.73337">
        <ele>1155.3</ele>
      </trkpt>
      <trkpt lat="45.83911" lon="6.73346">
        <ele>1162.1</ele>
      </trkpt>
      <trkpt lat="45.83911" lon="6.73346">
        <ele>1162.1</ele>
      </trkpt>
      <trkpt lat="45.83891" lon="6.73336">
        <ele>1157.9</ele>
      </trkpt>
      <trkpt lat="45.83891" lon="6.73336">
        <ele>1157.9</ele>
      </trkpt>
      <trkpt lat="45.83812" lon="6.73366">
        <ele>1168.5</ele>
      </trkpt>
      <trkpt lat="45.83812" lon="6.73366">
        <ele>1168.5</ele>
      </trkpt>
      <trkpt lat="45.83734" lon="6.73492">
        <ele>1205.5</ele>
      </trkpt>
      <trkpt lat="45.83734" lon="6.73492">
        <ele>1205.5</ele>
      </trkpt>
      <trkpt lat="45.83724" lon="6.73493">
        <ele>1207.5</ele>
      </trkpt>
      <trkpt lat="45.83724" lon="6.73493">
        <ele>1207.5</ele>
      </trkpt>
      <trkpt lat="45.83716" lon="6.73391">
        <ele>1182.5</ele>
      </trkpt>
      <trkpt lat="45.83716" lon="6.73391">
        <ele>1182.5</ele>
      </trkpt>
      <trkpt lat="45.83609" lon="6.73323">
        <ele>1178.7</ele>
      </trkpt>
      <trkpt lat="45.83609" lon="6.73323">
        <ele>1178.7</ele>
      </trkpt>
      <trkpt lat="45.83558" lon="6.73331">
        <ele>1181.2</ele>
      </trkpt>
      <trkpt lat="45.83558" lon="6.73331">
        <ele>1181.2</ele>
      </trkpt>
      <trkpt lat="45.83541" lon="6.73352">
        <ele>1185.5</ele>
      </trkpt>
      <trkpt lat="45.83541" lon="6.73352">
        <ele>1185.5</ele>
      </trkpt>
      <trkpt lat="45.83525" lon="6.7335">
        <ele>1185.7</ele>
      </trkpt>
      <trkpt lat="45.83525" lon="6.7335">
        <ele>1185.7</ele>
      </trkpt>
      <trkpt lat="45.83475" lon="6.73379">
        <ele>1194.8</ele>
      </trkpt>
      <trkpt lat="45.83475" lon="6.73379">
        <ele>1194.8</ele>
      </trkpt>
      <trkpt lat="45.83459" lon="6.7337">
        <ele>1194.9</ele>
      </trkpt>
      <trkpt lat="45.83459" lon="6.7337">
        <ele>1194.9</ele>
      </trkpt>
      <trkpt lat="45.83435" lon="6.73319">
        <ele>1188.9</ele>
      </trkpt>
      <trkpt lat="45.83435" lon="6.73319">
        <ele>1188.9</ele>
      </trkpt>
      <trkpt lat="45.83424" lon="6.73345">
        <ele>1194.4</ele>
      </trkpt>
      <trkpt lat="45.83424" lon="6.73345">
        <ele>1194.4</ele>
      </trkpt>
      <trkpt lat="45.83392" lon="6.7334">
        <ele>1197.1</ele>
      </trkpt>
      <trkpt lat="45.83392" lon="6.7334">
        <ele>1197.1</ele>
      </trkpt>
      <trkpt lat="45.83337" lon="6.73354">
        <ele>1205.9</ele>
      </trkpt>
      <trkpt lat="45.83337" lon="6.73354">
        <ele>1205.9</ele>
      </trkpt>
      <trkpt lat="45.83289" lon="6.73356">
        <ele>1208.1</ele>
      </trkpt>
      <trkpt lat="45.83289" lon="6.73356">
        <ele>1208.1</ele>
      </trkpt>
      <trkpt lat="45.83259" lon="6.73373">
        <ele>1213.4</ele>
      </trkpt>
      <trkpt lat="45.83259" lon="6.73373">
        <ele>1213.4</ele>
      </trkpt>
      <trkpt lat="45.8324" lon="6.7335">
        <ele>1208.6</ele>
      </trkpt>
      <trkpt lat="45.8324" lon="6.7335">
        <ele>1208.6</ele>
      </trkpt>
      <trkpt lat="45.8319" lon="6.73379">
        <ele>1218.3</ele>
      </trkpt>
      <trkpt lat="45.8319" lon="6.73379">
        <ele>1218.3</ele>
      </trkpt>
      <trkpt lat="45.83154" lon="6.73424">
        <ele>1234.2</ele>
      </trkpt>
      <trkpt lat="45.83154" lon="6.73424">
        <ele>1234.2</ele>
      </trkpt>
      <trkpt lat="45.83118" lon="6.73419">
        <ele>1236.2</ele>
      </trkpt>
      <trkpt lat="45.83118" lon="6.73419">
        <ele>1236.2</ele>
      </trkpt>
      <trkpt lat="45.83068" lon="6.73403">
        <ele>1235.7</ele>
      </trkpt>
      <trkpt lat="45.83068" lon="6.73403">
        <ele>1235.7</ele>
      </trkpt>
      <trkpt lat="45.83042" lon="6.7342">
        <ele>1246.3</ele>
      </trkpt>
      <trkpt lat="45.83042" lon="6.7342">
        <ele>1246.3</ele>
      </trkpt>
      <trkpt lat="45.83021" lon="6.73464">
        <ele>1263</ele>
      </trkpt>
      <trkpt lat="45.83021" lon="6.73464">
        <ele>1263</ele>
      </trkpt>
      <trkpt lat="45.8293" lon="6.7336">
        <ele>1256.3</ele>
      </trkpt>
      <trkpt lat="45.8293" lon="6.7336">
        <ele>1256.3</ele>
      </trkpt>
      <trkpt lat="45.82912" lon="6.73356">
        <ele>1260.7</ele>
      </trkpt>
      <trkpt lat="45.82912" lon="6.73356">
        <ele>1260.7</ele>
      </trkpt>
      <trkpt lat="45.82891" lon="6.73364">
        <ele>1269.8</ele>
      </trkpt>
      <trkpt lat="45.82891" lon="6.73364">
        <ele>1269.8</ele>
      </trkpt>
      <trkpt lat="45.82874" lon="6.73373">
        <ele>1278.2</ele>
      </trkpt>
      <trkpt lat="45.82874" lon="6.73373">
        <ele>1278.2</ele>
      </trkpt>
      <trkpt lat="45.82857" lon="6.73373">
        <ele>1282.7</ele>
      </trkpt>
      <trkpt lat="45.82857" lon="6.73373">
        <ele>1282.7</ele>
      </trkpt>
      <trkpt lat="45.82812" lon="6.7328">
        <ele>1256.5</ele>
      </trkpt>
      <trkpt lat="45.82812" lon="6.7328">
        <ele>1256.5</ele>
      </trkpt>
      <trkpt lat="45.82788" lon="6.73263">
        <ele>1256.9</ele>
      </trkpt>
      <trkpt lat="45.82788" lon="6.73263">
        <ele>1256.9</ele>
      </trkpt>
      <trkpt lat="45.82719" lon="6.73249">
        <ele>1261.4</ele>
      </trkpt>
      <trkpt lat="45.82719" lon="6.73249">
        <ele>1261.4</ele>
      </trkpt>
      <trkpt lat="45.82589" lon="6.73202">
        <ele>1235</ele>
      </trkpt>
      <trkpt lat="45.82589" lon="6.73202">
        <ele>1235</ele>
      </trkpt>
      <trkpt lat="45.8257" lon="6.73179">
        <ele>1223.4</ele>
      </trkpt>
      <trkpt lat="45.8257" lon="6.73179">
        <ele>1223.4</ele>
      </trkpt>
      <trkpt lat="45.82494" lon="6.73161">
        <ele>1231.3</ele>
      </trkpt>
      <trkpt lat="45.82494" lon="6.73161">
        <ele>1231.3</ele>
      </trkpt>
      <trkpt lat="45.82465" lon="6.73163">
        <ele>1229.3</ele>
      </trkpt>
      <trkpt lat="45.82465" lon="6.73163">
        <ele>1229.3</ele>
      </trkpt>
      <trkpt lat="45.82425" lon="6.73147">
        <ele>1221.9</ele>
      </trkpt>
      <trkpt lat="45.82425" lon="6.73147">
        <ele>1221.9</ele>
      </trkpt>
      <trkpt lat="45.82281" lon="6.73115">
        <ele>1209.3</ele>
      </trkpt>
      <trkpt lat="45.82281" lon="6.73115">
        <ele>1209.3</ele>
      </trkpt>
      <trkpt lat="45.82287" lon="6.73103">
        <ele>1207.9</ele>
      </trkpt>
      <trkpt lat="45.82287" lon="6.73103">
        <ele>1207.9</ele>
      </trkpt>
      <trkpt lat="45.82281" lon="6.73082">
        <ele>1204.7</ele>
      </trkpt>
      <trkpt lat="45.82281" lon="6.73082">
        <ele>1204.7</ele>
      </trkpt>
      <trkpt lat="45.82206" lon="6.73065">
        <ele>1201.1</ele>
      </trkpt>
      <trkpt lat="45.82206" lon="6.73065">
        <ele>1201.1</ele>
      </trkpt>
      <trkpt lat="45.82181" lon="6.73044">
        <ele>1197.7</ele>
      </trkpt>
      <trkpt lat="45.82181" lon="6.73044">
        <ele>1197.7</ele>
      </trkpt>
      <trkpt lat="45.82153" lon="6.73012">
        <ele>1191.2</ele>
      </trkpt>
      <trkpt lat="45.82153" lon="6.73012">
        <ele>1191.2</ele>
      </trkpt>
      <trkpt lat="45.82105" lon="6.73043">
        <ele>1193.4</ele>
      </trkpt>
      <trkpt lat="45.82105" lon="6.73043">
        <ele>1193.4</ele>
      </trkpt>
      <trkpt lat="45.82093" lon="6.73031">
        <ele>1190.7</ele>
      </trkpt>
      <trkpt lat="45.82093" lon="6.73031">
        <ele>1190.7</ele>
      </trkpt>
      <trkpt lat="45.82077" lon="6.7302">
        <ele>1188</ele>
      </trkpt>
      <trkpt lat="45.82077" lon="6.7302">
        <ele>1188</ele>
      </trkpt>
      <trkpt lat="45.8205" lon="6.72971">
        <ele>1179.9</ele>
      </trkpt>
      <trkpt lat="45.8205" lon="6.72971">
        <ele>1179.9</ele>
      </trkpt>
      <trkpt lat="45.82024" lon="6.72961">
        <ele>1176.4</ele>
      </trkpt>
      <trkpt lat="45.82024" lon="6.72961">
        <ele>1176.4</ele>
      </trkpt>
      <trkpt lat="45.82005" lon="6.72988">
        <ele>1177.2</ele>
      </trkpt>
      <trkpt lat="45.82005" lon="6.72988">
        <ele>1177.2</ele>
      </trkpt>
      <trkpt lat="45.81987" lon="6.72994">
        <ele>1176.3</ele>
      </trkpt>
      <trkpt lat="45.81987" lon="6.72994">
        <ele>1176.3</ele>
      </trkpt>
      <trkpt lat="45.81922" lon="6.72974">
        <ele>1168.4</ele>
      </trkpt>
      <trkpt lat="45.81922" lon="6.72974">
        <ele>1168.4</ele>
      </trkpt>
      <trkpt lat="45.81897" lon="6.72965">
        <ele>1165.3</ele>
      </trkpt>
      <trkpt lat="45.81897" lon="6.72965">
        <ele>1165.3</ele>
      </trkpt>
      <trkpt lat="45.81865" lon="6.72966">
        <ele>1163.5</ele>
      </trkpt>
      <trkpt lat="45.81865" lon="6.72966">
        <ele>1163.5</ele>
      </trkpt>
      <trkpt lat="45.81858" lon="6.72937">
        <ele>1159</ele>
      </trkpt>
      <trkpt lat="45.81858" lon="6.72937">
        <ele>1159</ele>
      </trkpt>
      <trkpt lat="45.81843" lon="6.72912">
        <ele>1155.2</ele>
      </trkpt>
      <trkpt lat="45.81843" lon="6.72912">
        <ele>1155.2</ele>
      </trkpt>
      <trkpt lat="45.81826" lon="6.72884">
        <ele>1153.7</ele>
      </trkpt>
      <trkpt lat="45.81826" lon="6.72884">
        <ele>1153.7</ele>
      </trkpt>
      <trkpt lat="45.81831" lon="6.7285">
        <ele>1151.2</ele>
      </trkpt>
      <trkpt lat="45.81831" lon="6.7285">
        <ele>1151.2</ele>
      </trkpt>
      <trkpt lat="45.81755" lon="6.72825">
        <ele>1155.2</ele>
      </trkpt>
      <trkpt lat="45.81755" lon="6.72825">
        <ele>1155.2</ele>
      </trkpt>
      <trkpt lat="45.81709" lon="6.72797">
        <ele>1157</ele>
      </trkpt>
      <trkpt lat="45.81709" lon="6.72797">
        <ele>1157</ele>
      </trkpt>
      <trkpt lat="45.81683" lon="6.72763">
        <ele>1156.7</ele>
      </trkpt>
      <trkpt lat="45.81683" lon="6.72763">
        <ele>1156.7</ele>
      </trkpt>
      <trkpt lat="45.81665" lon="6.72749">
        <ele>1157.1</ele>
      </trkpt>
      <trkpt lat="45.81665" lon="6.72749">
        <ele>1157.1</ele>
      </trkpt>
      <trkpt lat="45.81675" lon="6.72731">
        <ele>1156.1</ele>
      </trkpt>
      <trkpt lat="45.81675" lon="6.72731">
        <ele>1156.1</ele>
      </trkpt>
      <trkpt lat="45.81644" lon="6.72698">
        <ele>1156.5</ele>
      </trkpt>
      <trkpt lat="45.81644" lon="6.72698">
        <ele>1156.5</ele>
      </trkpt>
      <trkpt lat="45.81635" lon="6.72695">
        <ele>1156.7</ele>
      </trkpt>
      <trkpt lat="45.81635" lon="6.72695">
        <ele>1156.7</ele>
      </trkpt>
      <trkpt lat="45.81638" lon="6.72669">
        <ele>1155.8</ele>
      </trkpt>
      <trkpt lat="45.81638" lon="6.72669">
        <ele>1155.8</ele>
      </trkpt>
      <trkpt lat="45.8157" lon="6.72621">
        <ele>1160.3</ele>
      </trkpt>
      <trkpt lat="45.8157" lon="6.72621">
        <ele>1160.3</ele>
      </trkpt>
      <trkpt lat="45.81473" lon="6.72616">
        <ele>1163.3</ele>
      </trkpt>
      <trkpt lat="45.81473" lon="6.72616">
        <ele>1163.3</ele>
      </trkpt>
      <trkpt lat="45.81441" lon="6.72624">
        <ele>1163.4</ele>
      </trkpt>
      <trkpt lat="45.81441" lon="6.72624">
        <ele>1163.4</ele>
      </trkpt>
      <trkpt lat="45.81403" lon="6.72674">
        <ele>1162.8</ele>
      </trkpt>
      <trkpt lat="45.81403" lon="6.72674">
        <ele>1162.8</ele>
      </trkpt>
      <trkpt lat="45.81341" lon="6.72687">
        <ele>1164.2</ele>
      </trkpt>
      <trkpt lat="45.81341" lon="6.72687">
        <ele>1164.2</ele>
      </trkpt>
      <trkpt lat="45.8131" lon="6.72683">
        <ele>1164.3</ele>
      </trkpt>
      <trkpt lat="45.8131" lon="6.72683">
        <ele>1164.3</ele>
      </trkpt>
      <trkpt lat="45.81264" lon="6.72677">
        <ele>1164.4</ele>
      </trkpt>
      <trkpt lat="45.81264" lon="6.72677">
        <ele>1164.4</ele>
      </trkpt>
      <trkpt lat="45.81224" lon="6.72681">
        <ele>1164.4</ele>
      </trkpt>
      <trkpt lat="45.81224" lon="6.72681">
        <ele>1164.4</ele>
      </trkpt>
      <trkpt lat="45.81171" lon="6.72683">
        <ele>1163.5</ele>
      </trkpt>
      <trkpt lat="45.81171" lon="6.72683">
        <ele>1163.5</ele>
      </trkpt>
      <trkpt lat="45.81099" lon="6.72715">
        <ele>1164</ele>
      </trkpt>
      <trkpt lat="45.81099" lon="6.72715">
        <ele>1164</ele>
      </trkpt>
      <trkpt lat="45.81102" lon="6.72679">
        <ele>1163.8</ele>
      </trkpt>
      <trkpt lat="45.81102" lon="6.72679">
        <ele>1163.8</ele>
      </trkpt>
      <trkpt lat="45.81108" lon="6.72613">
        <ele>1165</ele>
      </trkpt>
      <trkpt lat="45.81108" lon="6.72613">
        <ele>1165</ele>
      </trkpt>
      <trkpt lat="45.81107" lon="6.72594">
        <ele>1165.5</ele>
      </trkpt>
      <trkpt lat="45.81107" lon="6.72594">
        <ele>1165.5</ele>
      </trkpt>
      <trkpt lat="45.8109" lon="6.72563">
        <ele>1166.2</ele>
      </trkpt>
      <trkpt lat="45.8109" lon="6.72563">
        <ele>1166.2</ele>
      </trkpt>
      <trkpt lat="45.81097" lon="6.72545">
        <ele>1166.3</ele>
      </trkpt>
      <trkpt lat="45.81097" lon="6.72545">
        <ele>1166.3</ele>
      </trkpt>
      <trkpt lat="45.81064" lon="6.7253">
        <ele>1166.8</ele>
      </trkpt>
      <trkpt lat="45.81064" lon="6.7253">
        <ele>1166.8</ele>
      </trkpt>
      <trkpt lat="45.8104" lon="6.72529">
        <ele>1167</ele>
      </trkpt>
      <trkpt lat="45.8104" lon="6.72529">
        <ele>1167</ele>
      </trkpt>
      <trkpt lat="45.81028" lon="6.72529">
        <ele>1167.1</ele>
      </trkpt>
      <trkpt lat="45.81028" lon="6.72529">
        <ele>1167.1</ele>
      </trkpt>
      <trkpt lat="45.81004" lon="6.72494">
        <ele>1168.6</ele>
      </trkpt>
      <trkpt lat="45.81004" lon="6.72494">
        <ele>1168.6</ele>
      </trkpt>
    </trkseg>
  </trk>
</gpx>